createdAt,value
2023-01-31T00:02:01.292Z,8.43
2023-01-31T00:04:33.293Z,8.20
2023-01-31T00:07:06.832Z,7.75
2023-01-31T00:09:38.828Z,4.28
2023-01-31T00:12:10.853Z,6.85
2023-01-31T00:14:45.436Z,5.80
2023-01-31T00:17:17.431Z,4.40
2023-01-31T00:19:49.496Z,6.70
2023-01-31T00:22:21.585Z,3.72
2023-01-31T00:24:53.576Z,6.68
2023-01-31T00:27:25.649Z,2.38
2023-01-31T00:30:00.246Z,4.63
2023-01-31T00:32:32.267Z,6.05
2023-01-31T00:35:05.074Z,4.93
2023-01-31T00:37:37.555Z,7.25
2023-01-31T00:40:11.311Z,3.67
2023-01-31T00:42:44.314Z,7.78
2023-01-31T00:45:19.291Z,4.25
2023-01-31T00:47:51.433Z,6.97
2023-01-31T00:50:23.709Z,8.93
2023-01-31T00:52:55.790Z,14.32
2023-01-31T00:55:27.815Z,7.47
2023-01-31T00:57:59.881Z,6.88
2023-01-31T01:00:35.014Z,5.05
2023-01-31T01:03:07.072Z,6.13
2023-01-31T01:05:39.064Z,5.18
2023-01-31T01:08:11.117Z,5.05
2023-01-31T01:10:43.162Z,7.68
2023-01-31T01:13:15.140Z,5.32
2023-01-31T01:15:49.769Z,10.13
2023-01-31T01:18:21.771Z,6.13
2023-01-31T01:20:53.789Z,9.27
2023-01-31T01:23:25.795Z,8.38
2023-01-31T01:25:57.773Z,8.57
2023-01-31T01:28:32.507Z,5.10
2023-01-31T01:31:11.901Z,7.40
2023-01-31T01:33:44.811Z,6.95
2023-01-31T01:36:22.227Z,2.88
2023-01-31T01:38:54.502Z,1.50
2023-01-31T01:41:26.514Z,3.53
2023-01-31T01:44:00.186Z,3.53
2023-01-31T01:46:42.259Z,4.95
2023-01-31T01:49:19.546Z,8.20
2023-01-31T01:51:53.739Z,4.10
2023-01-31T01:54:31.603Z,3.67
2023-01-31T01:57:06.161Z,5.18
2023-01-31T01:59:40.944Z,6.88
2023-01-31T02:02:17.153Z,6.25
2023-01-31T02:04:50.964Z,5.10
2023-01-31T02:07:23.014Z,10.20
2023-01-31T02:09:59.145Z,3.72
2023-01-31T02:12:32.319Z,8.07
2023-01-31T02:15:05.710Z,8.52
2023-01-31T02:17:40.412Z,3.40
2023-01-31T02:20:38.123Z,5.25
2023-01-31T02:23:28.523Z,12.43
2023-01-31T02:26:25.709Z,9.02
2023-01-31T02:29:20.425Z,4.57
2023-01-31T02:32:15.738Z,13.68
2023-01-31T02:34:57.542Z,7.22
2023-01-31T02:37:36.918Z,10.57
2023-01-31T02:40:15.361Z,5.15
2023-01-31T02:42:55.280Z,2.95
2023-01-31T02:45:33.324Z,11.18
2023-01-31T02:48:17.464Z,6.68
2023-01-31T02:51:00.348Z,8.40
2023-01-31T02:53:37.320Z,4.20
2023-01-31T02:56:20.438Z,5.65
2023-01-31T02:58:58.165Z,9.50
2023-01-31T03:01:35.370Z,9.98
2023-01-31T03:04:09.469Z,13.52
2023-01-31T03:07:00.288Z,14.15
2023-01-31T03:09:39.228Z,9.80
2023-01-31T03:12:39.083Z,13.13
2023-01-31T03:15:57.293Z,10.65
2023-01-31T03:18:35.106Z,9.82
2023-01-31T03:21:10.443Z,10.15
2023-01-31T03:23:50.837Z,11.27
2023-01-31T03:26:24.125Z,12.50
2023-01-31T03:28:58.730Z,10.38
2023-01-31T03:31:35.566Z,3.00
2023-01-31T03:34:11.618Z,10.02
2023-01-31T03:36:52.396Z,12.27
2023-01-31T03:39:37.836Z,7.30
2023-01-31T03:42:16.040Z,12.95
2023-01-31T03:44:55.350Z,6.57
2023-01-31T03:47:31.376Z,12.07
2023-01-31T03:50:08.756Z,15.50
2023-01-31T03:52:44.832Z,15.27
2023-01-31T03:55:24.332Z,15.95
2023-01-31T03:57:58.693Z,15.45
2023-01-31T04:00:34.540Z,10.77
2023-01-31T04:03:14.950Z,9.23
2023-01-31T04:05:49.218Z,14.50
2023-01-31T04:08:21.745Z,12.23
2023-01-31T04:10:58.739Z,16.48
2023-01-31T04:13:30.899Z,16.58
2023-01-31T04:16:03.567Z,12.68
2023-01-31T04:18:37.731Z,14.40
2023-01-31T04:21:10.742Z,9.45
2023-01-31T04:23:42.905Z,13.68
2023-01-31T04:26:17.617Z,17.52
2023-01-31T04:28:49.755Z,14.18
2023-01-31T04:31:21.880Z,15.02
2023-01-31T04:33:54.009Z,13.27
2023-01-31T04:36:26.108Z,13.13
2023-01-31T04:38:58.321Z,18.35
2023-01-31T04:41:33.068Z,14.57
2023-01-31T04:44:05.523Z,13.43
2023-01-31T04:46:37.563Z,12.43
2023-01-31T04:49:09.915Z,14.40
2023-01-31T04:51:42.111Z,12.40
2023-01-31T04:54:14.111Z,4.65
2023-01-31T04:56:48.792Z,12.18
2023-01-31T04:59:20.857Z,11.15
2023-01-31T05:01:52.872Z,13.80
2023-01-31T05:04:26.384Z,13.20
2023-01-31T05:06:58.527Z,10.73
2023-01-31T05:09:30.502Z,10.85
2023-01-31T05:12:07.367Z,4.50
2023-01-31T05:14:39.483Z,11.32
2023-01-31T05:17:11.660Z,5.70
2023-01-31T05:19:45.538Z,11.75
2023-01-31T05:22:17.913Z,5.50
2023-01-31T05:24:50.544Z,11.43
2023-01-31T05:27:25.629Z,15.65
2023-01-31T05:29:57.959Z,13.95
2023-01-31T05:32:30.043Z,9.30
2023-01-31T05:35:02.666Z,12.43
2023-01-31T05:37:34.941Z,13.93
2023-01-31T05:40:08.181Z,10.77
2023-01-31T05:42:43.360Z,6.85
2023-01-31T05:45:16.730Z,2.35
2023-01-31T05:47:49.245Z,11.48
2023-01-31T05:50:21.957Z,7.90
2023-01-31T05:52:55.318Z,8.02
2023-01-31T05:55:27.876Z,5.55
2023-01-31T05:58:02.491Z,5.22
2023-01-31T06:00:34.480Z,6.22
2023-01-31T06:03:06.719Z,6.47
2023-01-31T06:05:40.726Z,7.95
2023-01-31T06:08:12.917Z,12.70
2023-01-31T06:10:45.056Z,4.35
2023-01-31T06:13:19.645Z,4.15
2023-01-31T06:15:51.706Z,4.05
2023-01-31T06:18:24.014Z,7.65
2023-01-31T06:20:56.245Z,3.67
2023-01-31T06:23:28.650Z,9.27
2023-01-31T06:26:00.707Z,5.63
2023-01-31T06:28:36.983Z,6.05
2023-01-31T06:31:10.008Z,6.63
2023-01-31T06:33:47.435Z,4.00
2023-01-31T06:36:20.120Z,4.32
2023-01-31T06:38:52.689Z,6.03
2023-01-31T06:41:24.762Z,6.35
2023-01-31T06:43:59.475Z,6.50
2023-01-31T06:46:31.739Z,4.53
2023-01-31T06:49:04.783Z,6.15
2023-01-31T06:51:36.894Z,10.43
2023-01-31T06:54:08.976Z,4.68
2023-01-31T06:56:40.972Z,7.07
2023-01-31T07:01:47.624Z,4.82
2023-01-31T07:04:19.804Z,3.90
2023-01-31T07:06:52.068Z,11.23
2023-01-31T07:09:24.601Z,8.30
2023-01-31T07:14:31.560Z,11.75
2023-01-31T07:17:03.861Z,10.48
2023-01-31T07:19:35.832Z,11.98
2023-01-31T07:24:41.679Z,4.60
2023-01-31T07:27:14.173Z,11.00
2023-01-31T07:29:48.880Z,14.63
2023-01-31T07:32:21.535Z,9.02
2023-01-31T07:34:53.558Z,3.17
2023-01-31T07:39:57.524Z,11.32
2023-01-31T07:42:42.227Z,9.30
2023-01-31T07:45:23.328Z,7.05
2023-01-31T07:47:59.038Z,12.23
2023-01-31T07:50:31.176Z,12.45
2023-01-31T07:53:03.209Z,7.13
2023-01-31T07:58:07.200Z,10.93
2023-01-31T08:01:07.930Z,12.73
2023-01-31T08:03:41.625Z,6.90
2023-01-31T08:06:14.460Z,7.28
2023-01-31T08:08:47.350Z,10.15
2023-01-31T08:11:19.518Z,12.15
2023-01-31T08:13:51.678Z,6.65
2023-01-31T08:16:26.920Z,5.95
2023-01-31T08:19:01.182Z,8.02
2023-01-31T08:21:33.188Z,8.68
2023-01-31T08:24:05.952Z,13.15
2023-01-31T08:26:37.979Z,10.63
2023-01-31T08:29:10.044Z,10.40
2023-01-31T08:31:44.843Z,9.55
2023-01-31T08:34:17.207Z,7.50
2023-01-31T08:36:49.362Z,5.38
2023-01-31T08:39:21.365Z,6.93
2023-01-31T08:41:53.360Z,11.73
2023-01-31T08:44:25.412Z,13.02
2023-01-31T08:47:02.328Z,12.45
2023-01-31T08:49:36.951Z,6.72
2023-01-31T08:52:08.958Z,8.10
2023-01-31T08:54:41.322Z,5.35
2023-01-31T08:57:13.417Z,8.32
2023-01-31T08:59:45.385Z,7.85
2023-01-31T09:02:20.090Z,6.72
2023-01-31T09:04:52.103Z,5.57
2023-01-31T09:07:24.141Z,11.73
2023-01-31T09:09:56.262Z,7.07
2023-01-31T09:12:28.891Z,6.13
2023-01-31T09:15:01.291Z,10.38
2023-01-31T09:17:35.852Z,7.25
2023-01-31T09:20:10.269Z,8.27
2023-01-31T09:22:42.343Z,7.07
2023-01-31T09:25:14.473Z,2.47
2023-01-31T09:27:49.290Z,10.73
2023-01-31T09:30:21.763Z,6.07
2023-01-31T09:32:56.392Z,3.72
2023-01-31T09:35:28.468Z,5.13
2023-01-31T09:38:00.653Z,2.05
2023-01-31T09:40:36.488Z,1.73
2023-01-31T09:43:12.830Z,11.45
2023-01-31T09:45:46.125Z,6.40
2023-01-31T09:48:27.278Z,9.85
2023-01-31T09:50:59.784Z,4.32
2023-01-31T09:53:35.103Z,9.15
2023-01-31T09:56:19.960Z,6.50
2023-01-31T09:58:59.686Z,4.00
2023-01-31T10:01:40.497Z,4.50
2023-01-31T10:04:38.221Z,7.68
2023-01-31T10:07:15.774Z,6.72
2023-01-31T10:09:53.725Z,3.97
2023-01-31T10:12:33.281Z,5.57
2023-01-31T10:15:13.695Z,6.35
2023-01-31T10:17:50.054Z,11.23
2023-01-31T10:20:33.804Z,7.53
2023-01-31T10:23:10.993Z,8.20
2023-01-31T10:25:48.797Z,8.88
2023-01-31T10:28:24.927Z,6.90
2023-01-31T10:31:01.767Z,6.32
2023-01-31T10:33:47.807Z,7.50
2023-01-31T10:36:29.024Z,3.35
2023-01-31T10:39:06.418Z,5.50
2023-01-31T10:41:59.233Z,5.47
2023-01-31T10:44:40.196Z,6.35
2023-01-31T10:47:14.129Z,9.27
2023-01-31T10:49:48.817Z,12.07
2023-01-31T10:52:41.683Z,5.65
2023-01-31T10:55:30.543Z,9.73
2023-01-31T10:58:02.789Z,8.20
2023-01-31T11:00:35.056Z,3.92
2023-01-31T11:03:07.204Z,2.75
2023-01-31T11:05:47.398Z,4.65
2023-01-31T11:08:31.479Z,4.72
2023-01-31T11:11:09.165Z,4.75
2023-01-31T11:13:41.389Z,5.80
2023-01-31T11:16:13.595Z,7.10
2023-01-31T11:18:48.207Z,8.50
2023-01-31T11:21:23.678Z,4.10
2023-01-31T11:24:02.629Z,4.32
2023-01-31T11:26:37.877Z,5.93
2023-01-31T11:29:18.635Z,3.97
2023-01-31T11:31:50.899Z,7.63
2023-01-31T11:34:24.454Z,8.25
2023-01-31T11:37:05.734Z,5.30
2023-01-31T11:39:40.572Z,8.77
2023-01-31T11:42:14.277Z,5.63
2023-01-31T11:45:00.562Z,2.80
2023-01-31T11:47:39.468Z,5.22
2023-01-31T11:50:22.133Z,5.00
2023-01-31T11:52:55.744Z,7.47
2023-01-31T11:55:38.061Z,4.13
2023-01-31T11:58:19.595Z,6.25
2023-01-31T12:00:55.506Z,3.75
2023-01-31T12:03:29.149Z,3.72
2023-01-31T12:06:05.614Z,4.35
2023-01-31T12:08:40.328Z,9.68
2023-01-31T12:11:29.218Z,4.88
2023-01-31T12:14:09.546Z,4.38
2023-01-31T12:16:42.609Z,6.20
2023-01-31T12:19:29.213Z,4.47
2023-01-31T12:22:06.127Z,3.13
2023-01-31T12:24:47.092Z,6.63
2023-01-31T12:27:32.156Z,5.25
2023-01-31T12:30:27.391Z,3.67
2023-01-31T12:33:26.643Z,6.93
2023-01-31T12:36:15.349Z,6.63
2023-01-31T12:38:58.634Z,7.43
2023-01-31T12:41:36.013Z,6.78
2023-01-31T12:44:42.443Z,8.15
2023-01-31T12:47:45.057Z,4.95
2023-01-31T12:50:35.969Z,4.45
2023-01-31T12:53:28.338Z,7.57
2023-01-31T12:56:14.983Z,5.20
2023-01-31T12:59:06.337Z,4.32
2023-01-31T13:01:56.627Z,4.03
2023-01-31T13:04:40.801Z,2.38
2023-01-31T13:07:19.399Z,5.63
2023-01-31T13:09:56.764Z,4.10
2023-01-31T13:12:32.820Z,1.83
2023-01-31T13:15:10.734Z,2.60
2023-01-31T13:17:50.006Z,5.28
2023-01-31T13:20:29.506Z,2.97
2023-01-31T13:23:06.479Z,4.95
2023-01-31T13:25:42.093Z,3.58
2023-01-31T13:28:18.745Z,1.55
2023-01-31T13:30:55.107Z,3.70
2023-01-31T13:33:36.108Z,4.15
2023-01-31T13:36:19.154Z,3.10
2023-01-31T13:38:52.616Z,2.33
2023-01-31T13:41:29.912Z,1.85
2023-01-31T13:44:03.080Z,2.70
2023-01-31T13:46:39.719Z,4.15
2023-01-31T13:49:21.174Z,2.95
2023-01-31T13:51:55.974Z,1.65
2023-01-31T13:54:32.981Z,1.35
2023-01-31T13:57:06.488Z,3.78
2023-01-31T13:59:38.956Z,1.85
2023-01-31T14:02:19.155Z,2.75
2023-01-31T14:05:03.967Z,3.42
2023-01-31T14:07:36.035Z,2.25
2023-01-31T14:10:29.414Z,2.45
2023-01-31T14:13:22.243Z,2.15
2023-01-31T14:15:56.345Z,4.15
2023-01-31T14:18:42.500Z,2.95
2023-01-31T14:21:54.052Z,5.32
2023-01-31T14:25:01.703Z,2.55
2023-01-31T14:27:42.860Z,5.22
2023-01-31T14:30:35.043Z,1.85
2023-01-31T14:33:26.756Z,2.58
2023-01-31T14:36:18.525Z,2.72
2023-01-31T14:39:21.679Z,3.67
2023-01-31T14:45:00.089Z,3.67
2023-01-31T14:47:42.796Z,3.55
2023-01-31T14:50:35.220Z,4.15
2023-01-31T14:53:25.770Z,3.25
2023-01-31T14:56:14.392Z,4.30
2023-01-31T14:58:47.521Z,2.40
2023-01-31T15:01:31.258Z,6.03
2023-01-31T15:04:04.947Z,2.85
2023-01-31T15:06:41.088Z,3.05
2023-01-31T15:09:34.870Z,4.30
2023-01-31T15:12:44.822Z,2.60
2023-01-31T15:15:25.779Z,2.50
2023-01-31T15:18:13.221Z,6.05
2023-01-31T15:20:49.676Z,3.90
2023-01-31T15:23:24.731Z,1.35
2023-01-31T15:25:59.196Z,3.20
2023-01-31T15:28:35.908Z,3.67
2023-01-31T15:31:16.573Z,4.40
2023-01-31T15:33:57.787Z,7.78
2023-01-31T15:36:35.820Z,7.50
2023-01-31T15:41:49.327Z,3.00
2023-01-31T15:44:23.021Z,3.35
2023-01-31T15:46:58.112Z,5.03
2023-01-31T15:49:42.043Z,6.13
2023-01-31T15:52:16.106Z,5.75
2023-01-31T15:54:56.565Z,1.88
2023-01-31T15:57:35.120Z,4.03
2023-01-31T16:00:08.995Z,7.18
2023-01-31T16:02:41.384Z,3.72
2023-01-31T16:05:21.636Z,5.75
2023-01-31T16:07:53.973Z,5.53
2023-01-31T16:10:28.273Z,3.92
2023-01-31T16:13:01.632Z,2.58
2023-01-31T16:15:34.174Z,5.35
2023-01-31T16:18:06.395Z,3.55
2023-01-31T16:20:44.440Z,3.80
2023-01-31T16:26:03.154Z,3.78
2023-01-31T16:28:42.393Z,7.95
2023-01-31T16:31:17.408Z,4.50
2023-01-31T16:33:52.597Z,7.53
2023-01-31T16:36:30.945Z,3.95
2023-01-31T16:39:05.597Z,4.43
2023-01-31T16:41:44.253Z,5.30
2023-01-31T16:44:19.754Z,5.35
2023-01-31T16:46:53.616Z,4.53
2023-01-31T16:49:28.408Z,4.45
2023-01-31T16:52:17.454Z,3.80
2023-01-31T16:54:51.173Z,6.38
2023-01-31T16:57:38.279Z,6.25
2023-01-31T17:00:35.050Z,3.63
2023-01-31T17:03:17.078Z,3.83
2023-01-31T17:05:49.135Z,5.07
2023-01-31T17:08:25.507Z,5.35
2023-01-31T17:10:57.592Z,4.22
2023-01-31T17:13:29.652Z,6.07
2023-01-31T17:16:01.853Z,4.05
2023-01-31T17:18:35.837Z,3.83
2023-01-31T17:21:07.910Z,4.43
2023-01-31T17:23:42.863Z,3.40
2023-01-31T17:26:16.912Z,5.72
2023-01-31T17:29:00.817Z,5.68
2023-01-31T17:31:34.762Z,5.43
2023-01-31T17:34:12.797Z,7.75
2023-01-31T17:39:20.124Z,4.93
2023-01-31T17:41:52.223Z,4.38
2023-01-31T17:44:24.244Z,4.68
2023-01-31T17:46:56.482Z,4.30
2023-01-31T17:49:29.197Z,7.78
2023-01-31T17:52:02.178Z,2.15
2023-01-31T17:54:36.989Z,3.20
2023-01-31T17:57:09.028Z,3.88
2023-01-31T17:59:41.003Z,4.32
2023-01-31T18:02:13.057Z,1.20
2023-01-31T18:04:45.126Z,2.70
2023-01-31T18:07:17.362Z,4.15
2023-01-31T18:09:51.972Z,3.92
2023-01-31T18:12:23.970Z,3.42
2023-01-31T18:14:56.037Z,3.90
2023-01-31T18:17:28.292Z,3.95
2023-01-31T18:20:00.303Z,2.63
2023-01-31T18:22:32.310Z,3.90
2023-01-31T18:25:07.827Z,4.05
2023-01-31T18:27:40.168Z,3.13
2023-01-31T18:30:13.298Z,4.35
2023-01-31T18:32:45.386Z,3.03
2023-01-31T18:38:06.798Z,3.83
2023-01-31T18:40:42.321Z,5.78
2023-01-31T18:43:14.290Z,2.75
2023-01-31T18:45:46.315Z,1.98
2023-01-31T18:48:18.315Z,6.93
2023-01-31T18:50:50.334Z,4.05
2023-01-31T18:53:22.566Z,4.20
2023-01-31T18:56:03.939Z,4.55
2023-01-31T18:58:39.004Z,5.95
2023-01-31T19:01:12.688Z,5.50
2023-01-31T19:03:46.927Z,3.33
2023-01-31T19:06:21.625Z,2.28
2023-01-31T19:08:55.420Z,6.05
2023-01-31T19:11:30.455Z,4.53
2023-01-31T19:14:04.722Z,2.60
2023-01-31T19:16:39.981Z,2.22
2023-01-31T19:19:12.780Z,1.92
2023-01-31T19:21:44.801Z,2.97
2023-01-31T19:24:17.055Z,3.28
2023-01-31T19:26:51.707Z,4.28
2023-01-31T19:29:23.803Z,7.00
2023-01-31T19:31:55.954Z,5.25
2023-01-31T19:34:27.991Z,3.28
2023-01-31T19:37:00.008Z,4.80
2023-01-31T19:39:32.102Z,2.22
2023-01-31T19:42:07.640Z,4.93
2023-01-31T19:44:39.640Z,5.28
2023-01-31T19:47:11.722Z,7.00
2023-01-31T19:49:43.780Z,1.92
2023-01-31T19:52:15.823Z,3.78
2023-01-31T19:54:47.809Z,3.78
2023-01-31T19:57:23.441Z,3.70
2023-01-31T19:59:58.237Z,2.03
2023-01-31T20:02:30.249Z,2.50
2023-01-31T20:05:02.244Z,3.83
2023-01-31T20:07:36.667Z,5.82
2023-01-31T20:10:11.043Z,4.25
2023-01-31T20:12:45.685Z,3.13
2023-01-31T20:15:17.945Z,2.47
2023-01-31T20:17:49.986Z,3.63
2023-01-31T20:20:22.238Z,2.90
2023-01-31T20:22:54.428Z,4.40
2023-01-31T20:25:26.486Z,2.05
2023-01-31T20:28:01.106Z,3.33
2023-01-31T20:30:33.904Z,5.53
2023-01-31T20:33:05.944Z,2.80
2023-01-31T20:35:38.769Z,5.50
2023-01-31T20:38:11.511Z,4.10
2023-01-31T20:40:49.326Z,3.75
2023-01-31T20:43:26.100Z,4.85
2023-01-31T20:46:03.145Z,5.53
2023-01-31T20:48:35.240Z,3.47
2023-01-31T20:51:07.336Z,4.13
2023-01-31T20:53:39.690Z,4.28
2023-01-31T20:56:12.297Z,3.92
2023-01-31T20:58:46.926Z,4.15
2023-01-31T21:01:19.052Z,1.35
2023-01-31T21:03:52.093Z,3.35
2023-01-31T21:06:24.038Z,4.53
2023-01-31T21:08:56.469Z,1.50
2023-01-31T21:11:28.524Z,3.30
2023-01-31T21:14:03.763Z,3.05
2023-01-31T21:16:35.875Z,3.50
2023-01-31T21:19:07.891Z,2.10
2023-01-31T21:21:39.876Z,1.15
2023-01-31T21:24:11.879Z,2.78
2023-01-31T21:26:43.963Z,3.10
2023-01-31T21:29:18.963Z,2.92
2023-01-31T21:31:51.044Z,3.33
2023-01-31T21:34:27.144Z,2.97
2023-01-31T21:36:59.269Z,4.40
2023-01-31T21:39:31.309Z,3.92
2023-01-31T21:42:15.354Z,2.75
2023-01-31T21:44:49.999Z,4.10
2023-01-31T21:47:22.068Z,1.60
2023-01-31T21:49:54.211Z,1.73
2023-01-31T21:52:26.295Z,2.63
2023-01-31T21:54:58.252Z,2.88
2023-01-31T21:57:30.350Z,1.48
2023-01-31T22:00:06.298Z,5.03
2023-01-31T22:02:38.497Z,3.28
2023-01-31T22:05:10.540Z,4.18
2023-01-31T22:07:42.624Z,3.50
2023-01-31T22:10:14.943Z,3.60
2023-01-31T22:12:47.320Z,2.10
2023-01-31T22:15:22.381Z,6.03
2023-01-31T22:17:54.712Z,3.80
2023-01-31T22:20:26.995Z,3.15
2023-01-31T22:22:58.989Z,4.43
2023-01-31T22:25:30.991Z,4.50
2023-01-31T22:28:02.999Z,2.80
2023-01-31T22:30:37.582Z,4.00
2023-01-31T22:33:09.726Z,4.05
2023-01-31T22:35:41.731Z,2.08
2023-01-31T22:38:13.719Z,6.32
2023-01-31T22:40:46.530Z,3.00
2023-01-31T22:43:21.575Z,1.17
2023-01-31T22:45:58.613Z,2.40
2023-01-31T22:48:30.866Z,2.55
2023-01-31T22:51:05.521Z,3.17
2023-01-31T22:53:41.480Z,3.05
2023-01-31T22:56:15.581Z,4.93
2023-01-31T22:58:48.277Z,1.23
2023-01-31T23:01:25.122Z,3.60
2023-01-31T23:03:58.805Z,3.30
2023-01-31T23:06:31.178Z,3.00
2023-01-31T23:09:03.736Z,3.90
2023-01-31T23:11:35.856Z,4.18
2023-01-31T23:14:08.001Z,2.28
2023-01-31T23:17:00.937Z,4.05
2023-01-31T23:19:36.081Z,2.53
2023-01-31T23:22:08.059Z,0.85
2023-01-31T23:24:40.171Z,5.05
2023-01-31T23:27:12.177Z,2.97
2023-01-31T23:29:44.230Z,4.90
2023-01-31T23:32:19.188Z,5.22
2023-01-31T23:34:52.847Z,4.32
2023-01-31T23:37:25.128Z,4.78
2023-01-31T23:39:57.168Z,4.60
2023-01-31T23:42:32.005Z,2.53
2023-01-31T23:45:04.810Z,3.60
2023-01-31T23:47:42.745Z,3.50
2023-01-31T23:52:46.720Z,3.15
2023-01-31T23:55:18.854Z,2.88
2023-01-31T23:57:50.906Z,3.15
